Accueil
METAR-TAF:

METAR-TAF

Aéroports :

Aéroport de Saint-Nazaire - Montoir

Saint-Nazaire, France

latitude: 47-19N, longitude: 002-10W, altitude: 3 m

Observation

Le bulletin a été fait il y a 34 minutes, à 07:00 UTC
Vent 7 kt de nord
Température 18°C
Humidité 94%
Pression 1018 hPa
Visibilité 10 km ou plus
Quelques nuages à une hauteur de 700 ft
Nuages fragmentés à une hauteur de 5800 ft

METAR: LFRZ 220700Z AUTO 01007KT 9999 FEW007 BKN058 18/17 Q1018 NOSIG

Heure: 09:34 (07:34 UTC)

Prévision

Le bulletin a été fait il y a 2 heures et 34 minutes, à 05:00 UTC
Prévision valable du 22 à 06 UTC au 23 à 06 UTC
Vent 5 kt de nord
Visibilité 10 km ou plus
pas de nuages en-dessous de 1500 mètres et pas de cumulonimbus.
Temporairement
du 22 à 15 UTC au 22 à 20 UTC
Vent 10 kt de ouest/nord-ouest

TAF: LFRZ 220500Z 2206/2306 01005KT CAVOK TEMPO 2215/2220 30010KT

Observations et prévisions météorologiques de plus de 4000 aéroports (messages METAR et TAF).

Les stations disponibles sont représentées par des disques jaunes et rouges sur la carte.

Passer la souris dessus pour voir le nom de la station.

Cliquer dessus pour voir les observations et prévisions météorologiques.

Pour changer de carte: cliquez sur les boutons verts avec une croix noire pour zoomer, sur le bouton vert avec un tiret pour effectuer un zoom arrière, ou sur les flèches vertes pour les cartes adjacentes.


METAR-TAF: